CheckWX is a tool to help pilots better visualize weather data.  It is not intended as a substitute for an official pre-flight weather briefing.

09:11:36 UTC

KBAD TAF
Barksdale AFB Airport
Bossier City, Louisiana, USA
TAF KBAD 220202Z 2202/2308 11008KT 9999 OVC200 QNH3029INS BECMG 2214/2215 12010KT 9999 VCSH OVC050 QNH3018INS BECMG 2217/2218 14010KT 9999 -RA OVC010 QNH3010INS BECMG 2220/2221 15012KT 8000 RA BR OVC005 QNH3000INS BECMG 2307/2308 17012KT 9999 -RA OVC007 QNH2994INS TX05/2221Z TNM01/2213Z

Jan-22@
02:00 UTC

Jan-22 @ 02:00 UTC

Jan-22@
14:00 UTC

Jan-22 @ 14:00 UTC

TAF KBAD 220202Z 2202/2308 11008KT 9999 OVC200 QNH3029INS
Wind
  • 110° at 8 KTS
Cloud Levels
  • Overcast at 20,000' AGL

Jan-22@
14:00 UTC

Jan-22 @ 14:00 UTC

Jan-22@
17:00 UTC

Jan-22 @ 17:00 UTC

BECMG 2214/2215 12010KT 9999 VCSH OVC050 QNH3018INS

Becoming

Becoming Conditions expected by Wed, Jan 22, 2020 @ 15:00 UTC

Wind
  • 120° at 10 KTS
Cloud Levels
  • Overcast at 5,000' AGL

Jan-22@
17:00 UTC

Jan-22 @ 17:00 UTC

Jan-22@
20:00 UTC

Jan-22 @ 20:00 UTC

BECMG 2217/2218 14010KT 9999 -RA OVC010 QNH3010INS

Becoming

Becoming Conditions expected by Wed, Jan 22, 2020 @ 18:00 UTC

Wind
  • 140° at 10 KTS
Conditions
Light Rain
Cloud Levels
  • Overcast at 1,000' AGL

Jan-22@
20:00 UTC

Jan-22 @ 20:00 UTC

Jan-23@
07:00 UTC

Jan-23 @ 07:00 UTC

BECMG 2220/2221 15012KT 8000 RA BR OVC005 QNH3000INS

Becoming

Becoming Conditions expected by Wed, Jan 22, 2020 @ 21:00 UTC

Wind
  • 150° at 12 KTS
Conditions
Rain, Mist
Cloud Levels
  • Overcast at 500' AGL

Jan-23@
07:00 UTC

Jan-23 @ 07:00 UTC

Jan-23@
08:00 UTC

Jan-23 @ 08:00 UTC

BECMG 2307/2308 17012KT 9999 -RA OVC007 QNH2994INS TX05/2221Z TNM01/2213Z

Becoming

Becoming Conditions expected by Thu, Jan 23, 2020 @ 08:00 UTC

Wind
  • 170° at 12 KTS
Conditions
Light Rain
Cloud Levels
  • Overcast at 700' AGL